Time;durP1;ratioP1;P1;durP2;ratioP2;P2;SDS_P1;SDS_P2;PMS_P1;PMS_P2;Temp;Humidity;BMP_temperature;BMP_pressure;BME280_temperature;BME280_humidity;BME280_pressure;Samples;Min_cycle;Max_cycle;Signal;HPM_P1;HPM_P2
2020/12/07 07:35:51;;;;;;;8.90;4.00;;;21.80;47.10;;;;;;5146478;27;20610;-80
2020/12/07 07:38:16;;;;;;;6.00;3.50;;;21.90;47.80;;;;;;5125356;27;20468;-75
2020/12/07 07:40:42;;;;;;;4.40;3.03;;;22.10;47.50;;;;;;5126448;28;20422;-77
2020/12/07 07:43:11;;;;;;;3.67;3.07;;;22.60;47.50;;;;;;5125198;28;20185;-85
2020/12/07 07:45:38;;;;;;;8.97;3.53;;;23.10;46.90;;;;;;5125804;27;20685;-79
2020/12/07 07:48:16;;;;;;;4.00;3.43;;;23.50;46.50;;;;;;5124778;28;20400;-79
2020/12/07 08:17:51;;;;;;;3.53;3.23;;;25.10;43.60;;;;;;5125031;27;20408;-84
2020/12/07 08:20:18;;;;;;;3.90;3.50;;;24.90;42.90;;;;;;5124941;27;20405;-83
2020/12/07 08:22:55;;;;;;;4.67;2.93;;;24.80;43.50;;;;;;5125633;27;20768;-86
2020/12/07 08:25:45;;;;;;;5.20;3.27;;;24.90;43.60;;;;;;5122300;28;20420;-78
2020/12/07 08:28:29;;;;;;;4.63;3.57;;;25.10;43.40;;;;;;5127869;27;20410;-87
2020/12/07 08:30:59;;;;;;;33.33;5.07;;;25.30;42.70;;;;;;5124882;28;20415;-81
2020/12/07 08:33:25;;;;;;;6.50;3.00;;;25.40;40.60;;;;;;5122400;28;20409;-86
2020/12/07 08:35:50;;;;;;;4.50;3.20;;;25.10;40.60;;;;;;5124474;27;20420;-81
2020/12/07 08:38:38;;;;;;;10.20;3.27;;;25.00;41.40;;;;;;5124115;28;20421;-79
2020/12/07 08:41:10;;;;;;;7.53;3.17;;;24.80;40.40;;;;;;5116004;28;20199;-81
2020/12/07 08:43:37;;;;;;;4.47;2.87;;;24.70;41.30;;;;;;5124776;28;20901;-86
2020/12/07 08:46:03;;;;;;;3.17;2.30;;;24.60;40.20;;;;;;5117326;28;20427;-78
2020/12/07 08:48:29;;;;;;;3.30;2.73;;;24.50;40.70;;;;;;5109318;28;21086;-80
2020/12/07 08:50:55;;;;;;;2.90;2.17;;;24.50;41.30;;;;;;5111387;28;20419;-82
2020/12/07 08:53:25;;;;;;;6.20;2.90;;;24.50;40.50;;;;;;5110664;28;20170;-73
2020/12/07 08:55:52;;;;;;;6.60;2.97;;;24.50;40.80;;;;;;5109388;28;20434;-78
2020/12/07 08:58:17;;;;;;;5.67;2.90;;;24.60;40.30;;;;;;5110618;28;20469;-78
2020/12/07 09:00:43;;;;;;;3.90;3.10;;;24.50;40.30;;;;;;5108897;28;20190;-80
2020/12/07 09:03:09;;;;;;;3.57;2.63;;;24.40;40.70;;;;;;5110821;28;20435;-77
2020/12/07 09:05:35;;;;;;;5.10;3.30;;;24.40;40.60;;;;;;5110796;28;20415;-75
2020/12/07 09:08:01;;;;;;;4.30;3.40;;;24.30;40.70;;;;;;5108794;28;20198;-74
2020/12/07 09:10:26;;;;;;;7.50;3.07;;;24.20;41.40;;;;;;5111288;28;20949;-76
2020/12/07 09:12:52;;;;;;;6.47;4.40;;;24.10;41.00;;;;;;5111049;28;20177;-76
2020/12/07 09:15:18;;;;;;;5.03;4.53;;;24.00;40.80;;;;;;5109969;28;20262;-76
2020/12/07 09:17:44;;;;;;;6.53;4.37;;;23.90;40.90;;;;;;5110365;28;20633;-74
2020/12/07 09:20:09;;;;;;;5.27;4.60;;;23.80;40.70;;;;;;5108502;28;20195;-81
2020/12/07 09:22:35;;;;;;;6.40;4.90;;;23.80;40.80;;;;;;5111129;28;20175;-81
2020/12/07 09:25:01;;;;;;;6.37;5.53;;;23.70;40.60;;;;;;5109003;28;20641;-80
2020/12/07 09:27:26;;;;;;;10.43;7.00;;;23.60;40.60;;;;;;5109780;28;20652;-80
2020/12/07 09:29:57;;;;;;;21.47;11.10;;;23.60;40.90;;;;;;5109868;28;20231;-77
2020/12/07 09:32:23;;;;;;;8.33;5.13;;;23.60;41.90;;;;;;5111115;28;20180;-70
2020/12/07 09:34:48;;;;;;;4.33;3.50;;;23.50;43.70;;;;;;5109281;28;20494;-71
2020/12/07 09:37:15;;;;;;;4.40;3.80;;;23.70;45.00;;;;;;5108220;28;20190;-74
2020/12/07 09:39:40;;;;;;;4.97;3.47;;;23.80;45.10;;;;;;5108536;28;20703;-74
2020/12/07 09:42:06;;;;;;;4.53;3.53;;;24.00;43.20;;;;;;5109868;28;20408;-81
2020/12/07 09:44:32;;;;;;;4.50;3.63;;;23.90;44.50;;;;;;5100286;28;20389;-78
2020/12/07 09:46:57;;;;;;;4.03;2.70;;;24.10;44.80;;;;;;5109996;28;20650;-84
2020/12/07 09:49:23;;;;;;;4.00;3.10;;;24.20;42.60;;;;;;5110030;28;20708;-75
2020/12/07 09:51:49;;;;;;;4.50;4.10;;;24.00;43.40;;;;;;5109414;28;20199;-74
2020/12/07 09:54:15;;;;;;;4.73;3.57;;;24.20;44.50;;;;;;5109845;28;20209;-77
2020/12/07 09:56:41;;;;;;;3.37;3.10;;;24.40;44.20;;;;;;5108268;28;20428;-75
2020/12/07 09:59:06;;;;;;;3.50;3.20;;;24.50;43.90;;;;;;5108834;28;20211;-82
2020/12/07 10:01:32;;;;;;;4.63;3.70;;;24.60;43.80;;;;;;5109370;28;20623;-78
2020/12/07 10:03:58;;;;;;;4.70;2.97;;;24.70;43.70;;;;;;5111353;28;20357;-83
2020/12/07 10:06:24;;;;;;;4.57;2.90;;;25.00;43.60;;;;;;5111890;28;20192;-81
2020/12/07 10:08:51;;;;;;;5.17;3.20;;;25.20;43.20;;;;;;5111632;28;20179;-78
2020/12/07 10:11:17;;;;;;;3.10;2.80;;;25.30;41.30;;;;;;5112013;28;20429;-80
2020/12/07 10:13:43;;;;;;;3.40;2.63;;;25.40;40.40;;;;;;5112103;28;20415;-77
2020/12/07 10:16:10;;;;;;;4.00;2.90;;;25.40;40.60;;;;;;5107137;28;20176;-76
2020/12/07 10:18:35;;;;;;;2.70;2.50;;;25.30;40.30;;;;;;5108580;28;20794;-79
2020/12/07 10:21:01;;;;;;;2.60;2.40;;;25.30;39.90;;;;;;5110212;28;20416;-77
2020/12/07 10:23:27;;;;;;;3.60;2.30;;;25.20;39.70;;;;;;5111531;28;20180;-76
2020/12/07 10:25:53;;;;;;;3.97;2.40;;;25.10;40.20;;;;;;5111251;28;20176;-78
2020/12/07 10:28:19;;;;;;;4.53;2.43;;;25.40;40.60;;;;;;5111288;28;20199;-78
2020/12/07 10:30:45;;;;;;;2.20;2.00;;;25.40;39.30;;;;;;5111498;28;20937;-79
2020/12/07 10:33:11;;;;;;;10.03;2.87;;;25.20;39.40;;;;;;5110275;28;20417;-79
2020/12/07 10:35:37;;;;;;;2.67;2.47;;;25.10;39.50;;;;;;5109710;28;20246;-75
2020/12/07 10:38:03;;;;;;;3.60;2.70;;;25.00;39.50;;;;;;5110837;28;20443;-76
2020/12/07 10:40:29;;;;;;;3.27;3.03;;;25.00;39.70;;;;;;5111363;28;20459;-74
2020/12/07 10:42:57;;;;;;;3.23;2.87;;;25.00;39.80;;;;;;5109613;28;20420;-77
2020/12/07 10:45:23;;;;;;;2.90;2.70;;;24.90;39.90;;;;;;5110978;28;20429;-74
2020/12/07 10:47:50;;;;;;;3.00;2.70;;;24.80;40.20;;;;;;5110395;28;20413;-78
2020/12/07 10:50:17;;;;;;;2.90;2.60;;;24.80;40.20;;;;;;5111253;28;20172;-78
2020/12/07 10:52:43;;;;;;;3.30;2.53;;;24.70;40.30;;;;;;5111115;28;20420;-74
2020/12/07 10:55:08;;;;;;;2.80;2.07;;;24.70;40.40;;;;;;5109325;28;20468;-72
2020/12/07 10:57:51;;;;;;;2.37;2.03;;;24.60;40.50;;;;;;5110725;28;20253;-75
2020/12/07 11:00:17;;;;;;;5.03;2.40;;;24.50;40.50;;;;;;5108515;28;20219;-72
2020/12/07 11:02:42;;;;;;;2.10;1.90;;;24.40;40.90;;;;;;5110863;28;20967;-74
2020/12/07 11:05:08;;;;;;;2.60;2.40;;;24.40;40.90;;;;;;5110443;28;20217;-79
2020/12/07 11:07:34;;;;;;;2.50;2.20;;;24.30;40.90;;;;;;5110891;28;20180;-76
2020/12/07 11:10:00;;;;;;;7.70;2.13;;;24.30;41.00;;;;;;5110296;28;20180;-79
2020/12/07 11:12:26;;;;;;;2.33;1.97;;;24.20;41.40;;;;;;5110449;28;20439;-78
2020/12/07 11:14:52;;;;;;;2.10;1.90;;;24.10;41.20;;;;;;5109989;28;20210;-72
2020/12/07 11:17:18;;;;;;;3.20;2.20;;;24.10;41.10;;;;;;5110307;28;20172;-73
2020/12/07 11:19:44;;;;;;;1.63;1.40;;;24.00;40.90;;;;;;5110684;28;20427;-73
2020/12/07 11:22:11;;;;;;;2.97;1.53;;;23.90;41.50;;;;;;5110683;28;20622;-73
2020/12/07 11:24:37;;;;;;;2.40;1.80;;;23.80;40.60;;;;;;5110536;28;20512;-73
2020/12/07 11:27:03;;;;;;;1.70;1.60;;;23.70;40.60;;;;;;5110454;28;20833;-72
2020/12/07 11:29:29;;;;;;;1.33;1.23;;;23.60;40.60;;;;;;5109738;28;20502;-73
2020/12/07 11:31:55;;;;;;;2.60;1.70;;;23.50;40.60;;;;;;5110357;28;20172;-72
2020/12/07 11:34:21;;;;;;;1.67;1.50;;;23.50;40.70;;;;;;5110434;28;20227;-73
2020/12/07 11:36:48;;;;;;;1.77;1.67;;;23.50;40.70;;;;;;5110045;28;20164;-72
2020/12/07 11:44:34;;;;;;;1.60;1.50;;;23.60;41.70;;;;;;5110259;28;20399;-75
2020/12/07 11:47:03;;;;;;;2.20;1.50;;;23.60;41.90;;;;;;5109218;28;20456;-74
2020/12/07 11:49:29;;;;;;;1.73;1.60;;;23.70;42.20;;;;;;5109915;28;20404;-74
2020/12/07 11:51:56;;;;;;;1.90;1.63;;;23.80;42.10;;;;;;5109672;28;20412;-74
2020/12/07 11:54:21;;;;;;;2.10;1.77;;;23.90;42.60;;;;;;5110043;28;21117;-73
2020/12/07 11:56:47;;;;;;;3.20;1.40;;;23.90;42.00;;;;;;5110235;28;20412;-75
2020/12/07 11:59:13;;;;;;;1.40;1.30;;;24.00;42.00;;;;;;5109664;28;20605;-74
2020/12/07 12:01:39;;;;;;;1.93;1.60;;;24.00;41.90;;;;;;5109317;28;20649;-78
2020/12/07 12:04:05;;;;;;;3.60;1.53;;;24.00;41.90;;;;;;5109385;28;20190;-72
2020/12/07 12:06:40;;;;;;;1.87;1.60;;;24.00;41.90;;;;;;5109987;28;20549;-74
2020/12/07 12:09:15;;;;;;;1.73;1.63;;;24.00;41.90;;;;;;5109338;28;20799;-75
2020/12/07 12:11:43;;;;;;;2.10;1.90;;;24.00;42.30;;;;;;5109424;28;20407;-77
2020/12/07 12:14:10;;;;;;;3.23;1.90;;;24.00;42.30;;;;;;5108894;28;20551;-78
2020/12/07 12:16:38;;;;;;;3.70;1.53;;;24.00;42.10;;;;;;5110133;28;20436;-75
2020/12/07 12:19:09;;;;;;;2.57;1.70;;;24.00;42.10;;;;;;5108237;28;20418;-76
2020/12/07 12:21:35;;;;;;;1.60;1.50;;;24.00;42.20;;;;;;5110911;28;20860;-72
2020/12/07 12:24:04;;;;;;;3.37;1.10;;;24.00;42.20;;;;;;5113418;28;20408;-72
2020/12/07 12:26:31;;;;;;;1.70;1.60;;;23.90;42.20;;;;;;5113635;28;20396;-70
2020/12/07 12:28:57;;;;;;;2.10;1.57;;;23.90;42.20;;;;;;5113573;28;20450;-71
2020/12/07 12:31:23;;;;;;;2.00;1.50;;;23.90;42.20;;;;;;5113584;28;20799;-72
2020/12/07 12:33:48;;;;;;;3.33;2.40;;;23.80;42.30;;;;;;5112051;28;20171;-75
2020/12/07 12:36:16;;;;;;;2.30;2.10;;;23.80;42.20;;;;;;5113622;28;20519;-71
2020/12/07 12:38:42;;;;;;;2.37;2.17;;;23.80;42.10;;;;;;5112432;28;20175;-73
2020/12/07 12:41:09;;;;;;;2.20;2.10;;;23.70;42.00;;;;;;5112870;28;20416;-71
2020/12/07 12:43:35;;;;;;;2.73;2.50;;;23.70;41.90;;;;;;5112848;27;20255;-69
2020/12/07 12:46:03;;;;;;;4.03;2.10;;;23.70;42.00;;;;;;5111881;28;20485;-71
2020/12/07 12:48:29;;;;;;;2.30;1.73;;;23.60;41.90;;;;;;5113532;28;20487;-68
2020/12/07 12:50:54;;;;;;;6.33;2.30;;;23.60;41.90;;;;;;5111515;28;20507;-72
2020/12/07 12:53:20;;;;;;;1.93;1.63;;;23.60;43.50;;;;;;5113321;28;20542;-72
2020/12/07 12:55:46;;;;;;;4.87;1.90;;;23.60;44.50;;;;;;5111892;28;20290;-74
2020/12/07 12:58:11;;;;;;;2.87;2.17;;;23.60;46.30;;;;;;5113106;28;20179;-72
2020/12/07 13:00:37;;;;;;;2.67;2.27;;;23.60;46.00;;;;;;5112814;28;20204;-74
2020/12/07 13:03:03;;;;;;;4.00;2.33;;;23.70;45.70;;;;;;5113080;28;20176;-76
2020/12/07 13:05:28;;;;;;;3.67;2.50;;;23.70;46.00;;;;;;5096410;28;20180;-73
2020/12/07 13:07:54;;;;;;;2.40;1.90;;;23.70;45.60;;;;;;5090574;28;20218;-79
2020/12/07 13:10:20;;;;;;;3.10;2.10;;;23.80;46.10;;;;;;5088661;28;20188;-77
2020/12/07 13:12:46;;;;;;;2.87;2.07;;;23.90;45.90;;;;;;5090237;28;20169;-77
2020/12/07 13:15:13;;;;;;;4.20;2.10;;;23.90;46.00;;;;;;5090012;28;20306;-75
2020/12/07 13:17:40;;;;;;;3.13;2.00;;;23.90;45.50;;;;;;5095881;28;20254;-72
2020/12/07 13:20:08;;;;;;;4.70;2.20;;;23.90;44.60;;;;;;5106771;28;20424;-71
2020/12/07 13:22:49;;;;;;;6.00;2.40;;;23.90;44.20;;;;;;5109458;28;20412;-75
2020/12/07 13:25:21;;;;;;;2.27;2.00;;;23.80;44.50;;;;;;5110064;28;20412;-71
2020/12/07 13:28:12;;;;;;;2.20;2.10;;;23.70;44.10;;;;;;5096620;28;20432;-71
2020/12/07 13:30:38;;;;;;;3.53;2.40;;;23.70;44.80;;;;;;5102572;28;20416;-75
2020/12/07 13:33:04;;;;;;;3.70;2.00;;;23.70;44.30;;;;;;5109851;28;20426;-72
2020/12/07 13:35:30;;;;;;;3.33;1.77;;;23.70;44.60;;;;;;5109158;28;20235;-74
2020/12/07 13:37:55;;;;;;;4.90;2.63;;;23.60;44.70;;;;;;5108138;28;20182;-71
2020/12/07 13:40:21;;;;;;;2.97;2.00;;;23.70;44.70;;;;;;5108048;28;20215;-72
2020/12/07 13:42:46;;;;;;;2.10;2.00;;;23.70;44.60;;;;;;5108949;28;20188;-72
2020/12/07 13:45:12;;;;;;;3.20;2.40;;;23.60;44.60;;;;;;5109847;28;20194;-75
2020/12/07 13:47:38;;;;;;;2.10;1.73;;;23.60;44.50;;;;;;5108564;28;20210;-71
2020/12/07 13:50:04;;;;;;;8.43;2.40;;;23.60;44.90;;;;;;5109432;28;20698;-75
2020/12/07 13:52:30;;;;;;;4.63;2.17;;;23.50;45.00;;;;;;5109935;28;20466;-71
2020/12/07 13:54:56;;;;;;;3.30;2.10;;;23.50;44.60;;;;;;5108541;28;20475;-69
2020/12/07 13:57:22;;;;;;;2.10;1.90;;;23.50;44.50;;;;;;5108705;28;20183;-69
2020/12/07 13:59:47;;;;;;;2.80;2.60;;;23.50;44.30;;;;;;5110313;28;20207;-70
2020/12/07 14:02:13;;;;;;;3.90;2.90;;;23.50;44.10;;;;;;5109464;28;20183;-70
2020/12/07 14:04:46;;;;;;;3.97;2.60;;;23.50;43.80;;;;;;5108299;28;20175;-68
2020/12/07 14:07:12;;;;;;;2.50;2.30;;;23.40;43.80;;;;;;5108727;28;20590;-70
2020/12/07 14:09:37;;;;;;;3.70;3.00;;;23.40;43.60;;;;;;5109931;28;20428;-73
2020/12/07 14:12:03;;;;;;;10.53;3.27;;;23.40;43.50;;;;;;5108180;28;20884;-72
2020/12/07 14:14:29;;;;;;;3.40;2.70;;;23.40;44.20;;;;;;5109843;28;20250;-71
2020/12/07 14:17:00;;;;;;;3.47;2.47;;;23.40;44.00;;;;;;5109477;28;20187;-70
2020/12/07 14:19:33;;;;;;;2.87;2.47;;;23.40;44.10;;;;;;5109200;28;20164;-69
2020/12/07 14:22:28;;;;;;;3.63;3.03;;;23.40;44.00;;;;;;5108926;28;20484;-69
2020/12/07 14:40:48;;;;;;;5.13;2.53;;;23.70;43.50;;;;;;5109143;28;20433;-71
2020/12/07 14:43:14;;;;;;;2.90;1.87;;;23.80;43.50;;;;;;5107666;28;20410;-73
2020/12/07 14:46:04;;;;;;;4.20;2.93;;;23.90;43.40;;;;;;5108894;28;20183;-71
2020/12/07 14:48:25;;;;;;;5.10;2.93;;;23.90;43.60;;;;;;5107479;28;20280;-71
2020/12/07 14:50:56;;;;;;;2.80;2.10;;;24.00;43.40;;;;;;5109554;28;20454;-72
2020/12/07 14:53:27;;;;;;;3.10;2.10;;;24.10;43.10;;;;;;5109728;28;20170;-72
2020/12/07 15:06:19;;;;;;;5.90;2.70;;;24.10;42.70;;;;;;5109369;28;20383;-70
2020/12/07 15:14:00;;;;;;;2.63;2.43;;;24.00;43.20;;;;;;5099747;28;20216;-70
2020/12/07 15:16:28;;;;;;;2.63;1.97;;;23.90;42.40;;;;;;5110610;28;20422;-69
2020/12/07 15:18:55;;;;;;;2.20;2.00;;;23.90;42.50;;;;;;5110383;28;20765;-70
2020/12/07 15:21:21;;;;;;;2.20;2.00;;;23.90;42.50;;;;;;5110154;28;20417;-70
2020/12/07 15:23:48;;;;;;;3.13;2.00;;;23.90;42.50;;;;;;5108741;28;20411;-71
2020/12/07 15:26:14;;;;;;;2.13;1.93;;;23.80;42.50;;;;;;5109897;28;20782;-70
2020/12/07 15:28:40;;;;;;;3.30;3.00;;;23.80;42.40;;;;;;5110542;28;20971;-72
2020/12/07 15:31:08;;;;;;;3.00;2.77;;;23.80;42.60;;;;;;5110621;28;20408;-74
2020/12/07 15:33:35;;;;;;;2.87;2.67;;;23.80;42.60;;;;;;5110572;28;20634;-70
2020/12/07 15:36:07;;;;;;;3.60;3.30;;;23.80;42.80;;;;;;5110160;28;20472;-70
2020/12/07 15:38:35;;;;;;;3.23;2.93;;;23.90;42.70;;;;;;5110352;28;20412;-70
2020/12/07 15:41:01;;;;;;;4.60;3.80;;;23.80;42.80;;;;;;5110062;28;20404;-73
2020/12/07 15:43:26;;;;;;;5.40;3.40;;;23.80;42.80;;;;;;5110372;28;20407;-72
2020/12/07 15:45:53;;;;;;;3.53;3.20;;;23.70;42.80;;;;;;5110147;28;20412;-71
2020/12/07 15:48:20;;;;;;;4.40;3.33;;;23.70;42.80;;;;;;5108370;28;20259;-71
2020/12/07 15:50:46;;;;;;;3.23;3.03;;;23.70;43.20;;;;;;5110089;28;20545;-68
2020/12/07 15:53:13;;;;;;;5.10;4.70;;;23.70;42.90;;;;;;5108674;28;20507;-70
2020/12/07 15:55:39;;;;;;;4.40;4.10;;;23.60;42.80;;;;;;5109997;28;20857;-71
2020/12/07 15:58:05;;;;;;;5.43;5.03;;;23.60;42.90;;;;;;5113946;28;20415;-69
2020/12/07 16:00:31;;;;;;;5.10;4.70;;;23.60;42.80;;;;;;5115466;28;20424;-71
2020/12/07 16:03:01;;;;;;;4.93;4.60;;;23.60;42.90;;;;;;5115161;28;20412;-71
2020/12/07 16:05:27;;;;;;;5.07;3.80;;;23.60;42.90;;;;;;5114345;28;20401;-72
2020/12/07 16:07:53;;;;;;;4.70;4.30;;;23.60;42.90;;;;;;5095412;28;20435;-71
2020/12/07 16:10:19;;;;;;;4.07;3.70;;;23.60;43.10;;;;;;5091642;28;20887;-71
2020/12/07 16:12:45;;;;;;;5.30;3.70;;;23.60;42.90;;;;;;5091759;28;20425;-73
2020/12/07 16:15:12;;;;;;;3.80;3.13;;;23.50;42.80;;;;;;5091673;28;20549;-72
2020/12/07 16:17:39;;;;;;;3.67;3.10;;;23.60;42.90;;;;;;5090469;28;20428;-72
2020/12/07 16:20:05;;;;;;;3.53;3.27;;;23.60;42.90;;;;;;5091794;28;20416;-72
2020/12/07 16:22:31;;;;;;;3.60;3.30;;;23.70;42.90;;;;;;5091290;28;20577;-72
2020/12/07 16:24:57;;;;;;;4.10;3.00;;;23.80;42.80;;;;;;5093956;28;20431;-73
2020/12/07 16:27:23;;;;;;;4.03;3.40;;;23.90;42.90;;;;;;5107598;28;20438;-73
2020/12/07 16:29:49;;;;;;;2.57;2.37;;;23.90;42.60;;;;;;5106888;28;20518;-74
2020/12/07 16:32:16;;;;;;;3.30;3.10;;;23.90;42.40;;;;;;5111237;28;20484;-74
2020/12/07 16:34:42;;;;;;;3.00;2.80;;;23.90;42.20;;;;;;5110280;28;20578;-74
2020/12/07 16:37:08;;;;;;;5.53;3.10;;;23.90;42.10;;;;;;5110031;28;20489;-73
2020/12/07 16:39:34;;;;;;;3.20;3.00;;;23.80;41.90;;;;;;5110768;28;20419;-73
2020/12/07 16:42:00;;;;;;;2.77;2.57;;;23.80;42.50;;;;;;5110731;28;20443;-73
2020/12/07 16:44:26;;;;;;;2.50;2.30;;;23.70;41.60;;;;;;5109866;28;20704;-73
2020/12/07 16:46:59;;;;;;;5.20;3.13;;;23.70;41.60;;;;;;5106473;28;20416;-73
2020/12/07 16:49:26;;;;;;;2.37;2.17;;;23.60;41.60;;;;;;5109116;28;20412;-73
2020/12/07 16:51:52;;;;;;;3.33;3.10;;;23.60;41.60;;;;;;5108757;28;20491;-74
2020/12/07 16:54:18;;;;;;;2.60;2.40;;;23.50;41.50;;;;;;5108971;28;20570;-74
2020/12/07 16:56:50;;;;;;;3.10;2.90;;;23.50;41.50;;;;;;5111009;28;21059;-75
2020/12/07 16:59:16;;;;;;;2.00;1.90;;;23.40;41.50;;;;;;5103800;28;20431;-74
2020/12/07 17:01:43;;;;;;;2.17;2.03;;;23.40;41.50;;;;;;5109527;28;20459;-73
2020/12/07 17:04:09;;;;;;;2.30;2.20;;;23.30;41.50;;;;;;5109680;28;20439;-72
2020/12/07 17:06:35;;;;;;;2.20;2.00;;;23.30;41.50;;;;;;5098843;28;20450;-73
2020/12/07 17:09:02;;;;;;;2.93;2.70;;;23.20;41.40;;;;;;5109366;28;20914;-73
2020/12/07 17:11:28;;;;;;;2.50;2.30;;;23.20;41.50;;;;;;5107963;28;20556;-73
2020/12/07 17:13:54;;;;;;;3.77;2.43;;;23.10;41.50;;;;;;5106261;28;20431;-75
2020/12/07 17:16:21;;;;;;;2.80;2.60;;;23.10;43.30;;;;;;5110407;28;20495;-75
2020/12/07 17:18:51;;;;;;;2.80;2.43;;;23.10;44.10;;;;;;5110245;28;21054;-74
2020/12/07 17:21:24;;;;;;;2.77;2.20;;;23.10;44.50;;;;;;5108657;28;20451;-74
2020/12/07 17:23:50;;;;;;;4.17;2.53;;;23.10;45.00;;;;;;5110241;28;20918;-72
2020/12/07 17:26:16;;;;;;;2.50;2.30;;;23.10;45.40;;;;;;5108505;28;20448;-72
2020/12/07 17:28:42;;;;;;;2.50;2.30;;;23.10;45.00;;;;;;5110162;28;20401;-72
2020/12/07 17:31:08;;;;;;;2.97;2.47;;;23.10;45.40;;;;;;5110077;28;20419;-72
2020/12/07 17:33:34;;;;;;;3.00;2.80;;;23.10;45.90;;;;;;5110205;28;20427;-73
2020/12/07 17:36:00;;;;;;;3.83;2.90;;;23.10;46.10;;;;;;5109456;28;20468;-71
2020/12/07 17:38:26;;;;;;;4.13;2.37;;;23.10;46.00;;;;;;5108738;28;20753;-71
2020/12/07 17:40:52;;;;;;;3.73;3.20;;;23.10;45.30;;;;;;5109286;28;20419;-72
2020/12/07 17:43:18;;;;;;;2.70;2.33;;;23.10;44.80;;;;;;5110857;28;20411;-73
2020/12/07 17:45:44;;;;;;;3.07;2.40;;;23.10;44.50;;;;;;5108797;28;20420;-72
2020/12/07 17:48:10;;;;;;;2.40;2.20;;;23.00;44.10;;;;;;5108326;28;20770;-73
2020/12/07 17:50:36;;;;;;;3.90;2.93;;;23.00;43.90;;;;;;5108893;28;20420;-73
2020/12/07 17:53:02;;;;;;;3.77;2.50;;;22.90;43.60;;;;;;5109939;28;20412;-73
2020/12/07 17:55:28;;;;;;;3.90;2.60;;;22.90;43.40;;;;;;5107379;28;21172;-73
2020/12/07 17:57:55;;;;;;;3.60;3.17;;;22.90;43.30;;;;;;5108323;28;20453;-71
2020/12/07 18:00:21;;;;;;;2.70;2.40;;;22.90;43.70;;;;;;5109382;27;20416;-71
2020/12/07 18:02:47;;;;;;;3.10;2.90;;;22.90;43.70;;;;;;5109686;28;20412;-70
2020/12/07 18:05:13;;;;;;;5.27;3.13;;;23.00;43.40;;;;;;5108633;28;20414;-72
2020/12/07 18:07:39;;;;;;;3.90;2.83;;;23.10;43.80;;;;;;5109321;28;20549;-71
2020/12/07 18:10:06;;;;;;;5.70;3.20;;;23.10;43.90;;;;;;5109270;28;20499;-72
2020/12/07 18:12:32;;;;;;;3.20;2.90;;;23.10;43.50;;;;;;5109602;28;20416;-72
2020/12/07 18:15:04;;;;;;;4.53;3.10;;;23.10;43.20;;;;;;5109609;28;20451;-72
2020/12/07 18:17:30;;;;;;;3.40;3.10;;;23.10;43.00;;;;;;5109360;28;20921;-72
2020/12/07 18:19:56;;;;;;;7.50;3.43;;;23.10;42.80;;;;;;5108411;28;20416;-72
2020/12/07 18:22:22;;;;;;;3.37;2.57;;;23.10;42.70;;;;;;5109332;28;20520;-71
2020/12/07 18:24:48;;;;;;;3.63;2.80;;;23.10;42.70;;;;;;5107899;28;20409;-71
2020/12/07 18:27:14;;;;;;;7.13;2.97;;;23.10;42.60;;;;;;5108778;28;20876;-72
2020/12/07 18:29:41;;;;;;;8.47;3.80;;;23.10;42.60;;;;;;5108643;28;20495;-71
2020/12/07 18:32:07;;;;;;;4.83;2.77;;;23.10;43.20;;;;;;5106928;28;20449;-71
2020/12/07 18:34:33;;;;;;;5.67;3.23;;;23.10;43.80;;;;;;5108341;28;21001;-72
2020/12/07 18:36:59;;;;;;;8.70;2.90;;;23.10;43.90;;;;;;5108231;27;20421;-71
2020/12/07 18:39:26;;;;;;;6.07;3.10;;;23.10;43.80;;;;;;5108395;27;20502;-72
2020/12/07 18:41:52;;;;;;;7.73;3.00;;;23.10;43.40;;;;;;5108761;28;20438;-72
2020/12/07 18:44:18;;;;;;;8.00;2.73;;;23.10;43.10;;;;;;5108562;28;20443;-72
2020/12/07 18:46:44;;;;;;;6.80;3.67;;;23.10;42.80;;;;;;5108393;28;20424;-72
2020/12/07 18:49:10;;;;;;;4.53;2.83;;;23.10;42.60;;;;;;5108557;28;20825;-72
2020/12/07 18:51:36;;;;;;;6.43;3.60;;;23.20;42.50;;;;;;5108859;28;20906;-72
2020/12/07 18:54:02;;;;;;;4.27;2.47;;;23.20;42.40;;;;;;5109032;28;20444;-73
2020/12/07 18:56:28;;;;;;;4.63;3.40;;;23.20;42.10;;;;;;5109312;28;20835;-72
2020/12/07 18:58:54;;;;;;;3.60;2.83;;;23.30;42.00;;;;;;5109711;28;20420;-73
2020/12/07 19:01:21;;;;;;;3.27;2.87;;;23.30;41.80;;;;;;5110149;28;20451;-72
2020/12/07 19:03:47;;;;;;;3.13;2.77;;;23.30;41.70;;;;;;5109239;28;20408;-73
2020/12/07 19:06:14;;;;;;;2.87;2.40;;;23.30;41.60;;;;;;5109473;28;20408;-73
2020/12/07 19:08:42;;;;;;;3.23;2.60;;;23.30;41.50;;;;;;5109882;28;20464;-73
2020/12/07 19:11:09;;;;;;;3.17;2.50;;;23.30;41.70;;;;;;5107980;28;20434;-75
2020/12/07 19:13:39;;;;;;;3.30;2.63;;;23.20;41.30;;;;;;5109853;28;20457;-74
2020/12/07 19:16:05;;;;;;;2.77;2.30;;;23.20;41.30;;;;;;5108354;28;20591;-75
2020/12/07 19:18:31;;;;;;;2.33;2.13;;;23.20;41.30;;;;;;5109970;28;20420;-73
2020/12/07 19:20:59;;;;;;;2.60;2.23;;;23.20;41.20;;;;;;5111161;28;20423;-74
2020/12/07 19:23:25;;;;;;;2.40;2.20;;;23.10;41.20;;;;;;5111327;28;20407;-76
2020/12/07 19:25:51;;;;;;;5.23;2.40;;;23.10;42.80;;;;;;5109530;28;20420;-77
2020/12/07 19:29:26;;;;;;;4.83;2.37;;;23.20;43.40;;;;;;5167750;27;20616;-73
2020/12/07 19:31:52;;;;;;;3.43;2.63;;;23.10;43.40;;;;;;5169956;27;20415;-75
2020/12/07 19:34:18;;;;;;;3.53;2.80;;;23.10;43.30;;;;;;5151538;27;20519;-75
2020/12/07 19:36:45;;;;;;;3.90;2.10;;;23.00;43.00;;;;;;5151221;27;20454;-75
2020/12/07 19:39:11;;;;;;;2.07;1.83;;;22.90;42.80;;;;;;5151558;27;20415;-76
2020/12/07 19:41:38;;;;;;;3.33;1.93;;;22.80;42.70;;;;;;5130358;27;20440;-76
2020/12/07 19:44:06;;;;;;;2.27;1.90;;;22.70;42.70;;;;;;5148715;27;20454;-75
2020/12/07 19:46:35;;;;;;;4.63;2.33;;;22.70;42.60;;;;;;5165905;27;20441;-76
2020/12/07 19:49:07;;;;;;;2.07;1.87;;;22.60;42.60;;;;;;5169962;27;20476;-75
2020/12/07 19:51:33;;;;;;;2.80;1.87;;;22.50;42.60;;;;;;5148514;27;20446;-76
2020/12/07 19:53:59;;;;;;;3.47;2.33;;;22.40;42.60;;;;;;5150888;27;21064;-75
2020/12/07 19:56:26;;;;;;;2.10;1.90;;;22.30;42.60;;;;;;5169557;27;20410;-74
2020/12/07 19:58:52;;;;;;;2.00;1.90;;;22.30;42.60;;;;;;5150678;27;20468;-71
2020/12/07 20:01:18;;;;;;;2.17;1.83;;;22.20;42.60;;;;;;5146930;27;20426;-72
2020/12/07 20:03:44;;;;;;;1.90;1.80;;;22.20;43.40;;;;;;5148169;27;20406;-72
2020/12/07 20:06:10;;;;;;;2.20;2.00;;;22.10;42.60;;;;;;5147328;27;20517;-72
2020/12/07 20:08:36;;;;;;;2.80;2.17;;;22.00;42.60;;;;;;5142872;27;20474;-72
2020/12/07 20:11:02;;;;;;;2.00;1.80;;;21.90;42.70;;;;;;5146573;27;20448;-72
2020/12/07 20:13:28;;;;;;;2.20;1.77;;;21.90;42.60;;;;;;5148084;27;20414;-72
2020/12/07 20:15:57;;;;;;;1.87;1.70;;;21.80;42.60;;;;;;5142828;27;20510;-73
2020/12/07 20:18:25;;;;;;;2.40;2.20;;;21.70;42.60;;;;;;5147671;27;20419;-74
2020/12/07 20:20:52;;;;;;;1.93;1.80;;;21.70;42.60;;;;;;5148478;27;20414;-72
2020/12/07 20:23:19;;;;;;;1.70;1.60;;;21.60;42.60;;;;;;5149625;27;20512;-71
2020/12/07 20:25:45;;;;;;;1.80;1.67;;;21.60;42.70;;;;;;5164182;27;21667;-72
2020/12/07 20:28:11;;;;;;;1.80;1.43;;;21.50;42.70;;;;;;5150240;27;20544;-73
2020/12/07 20:30:37;;;;;;;2.00;1.90;;;21.50;42.70;;;;;;5147692;27;20407;-72
2020/12/07 20:33:03;;;;;;;2.57;2.37;;;21.40;42.60;;;;;;5147845;27;20422;-72
2020/12/07 20:35:29;;;;;;;2.83;2.63;;;21.40;42.70;;;;;;5146787;27;20485;-74
2020/12/07 20:37:55;;;;;;;3.67;2.70;;;21.30;42.70;;;;;;5147908;27;20407;-73
